createdAt,value
2022-12-11T00:02:13.648Z,23.42
2022-12-11T00:04:41.540Z,25.90
2022-12-11T00:07:10.739Z,27.30
2022-12-11T00:09:38.655Z,29.92
2022-12-11T00:12:07.431Z,31.75
2022-12-11T00:14:35.288Z,36.08
2022-12-11T00:17:03.026Z,40.40
2022-12-11T00:19:30.804Z,43.53
2022-12-11T00:21:58.499Z,44.80
2022-12-11T00:24:27.483Z,50.13
2022-12-11T00:26:55.167Z,55.50
2022-12-11T00:29:22.896Z,59.47
2022-12-11T00:31:50.613Z,66.60
2022-12-11T00:34:18.432Z,67.97
2022-12-11T00:36:46.242Z,73.47
2022-12-11T00:39:13.995Z,78.82
2022-12-11T00:41:43.036Z,81.32
2022-12-11T00:44:10.671Z,89.00
2022-12-11T00:46:38.455Z,90.00
2022-12-11T00:49:06.165Z,100.00
2022-12-11T00:51:33.839Z,108.95
2022-12-11T00:54:01.526Z,113.57
2022-12-11T00:56:29.285Z,117.05
2022-12-11T00:58:58.309Z,122.45
2022-12-11T01:01:26.356Z,129.30
2022-12-11T01:03:54.421Z,130.98
2022-12-11T01:06:23.016Z,136.75
2022-12-11T01:09:12.172Z,144.32
2022-12-11T01:11:39.133Z,143.07
2022-12-11T01:14:08.208Z,151.63
2022-12-11T01:16:35.918Z,155.23
2022-12-11T01:19:03.654Z,162.43
2022-12-11T01:21:31.365Z,169.50
2022-12-11T01:23:59.050Z,176.20
2022-12-11T01:26:26.738Z,181.98
2022-12-11T01:28:54.478Z,189.65
2022-12-11T01:31:23.502Z,198.30
2022-12-11T01:33:51.165Z,201.32
2022-12-11T01:36:20.254Z,212.20
2022-12-11T01:38:48.350Z,217.38
2022-12-11T01:41:16.055Z,227.75
2022-12-11T01:44:00.654Z,236.68
2022-12-11T01:46:29.965Z,241.90
2022-12-11T01:48:57.726Z,249.23
2022-12-11T01:51:25.549Z,256.63
2022-12-11T01:53:54.670Z,264.17
2022-12-11T01:56:22.342Z,271.63
2022-12-11T01:58:53.083Z,278.05
2022-12-11T02:01:23.441Z,286.80
2022-12-11T02:04:17.987Z,292.88
2022-12-11T02:06:46.705Z,296.00
2022-12-11T02:09:15.311Z,301.00
2022-12-11T02:11:48.840Z,306.48
2022-12-11T02:14:20.228Z,318.45
2022-12-11T02:16:49.964Z,319.95
2022-12-11T02:19:29.178Z,324.95
2022-12-11T02:21:56.843Z,332.23
2022-12-11T02:24:40.769Z,338.35
2022-12-11T02:27:15.110Z,344.88
2022-12-11T02:29:46.642Z,349.08
2022-12-11T02:32:16.202Z,355.50
2022-12-11T02:34:45.486Z,355.83
2022-12-11T02:37:16.082Z,360.20
2022-12-11T02:39:43.943Z,367.08
2022-12-11T02:42:11.887Z,372.52
2022-12-11T02:44:39.603Z,377.73
2022-12-11T02:47:09.812Z,374.75
2022-12-11T02:49:37.499Z,385.05
2022-12-11T02:52:05.489Z,387.50
2022-12-11T02:54:34.481Z,389.35
2022-12-11T02:57:04.654Z,391.65
2022-12-11T02:59:34.543Z,391.13
2022-12-11T03:02:02.357Z,393.55
2022-12-11T03:04:31.469Z,397.70
2022-12-11T03:07:01.397Z,397.85
2022-12-11T03:09:29.219Z,396.25
2022-12-11T03:11:56.885Z,399.95
2022-12-11T03:14:24.532Z,399.00
2022-12-11T03:16:55.343Z,398.42
2022-12-11T03:19:28.156Z,396.15
2022-12-11T03:22:00.423Z,399.63
2022-12-11T03:24:30.692Z,403.92
2022-12-11T03:27:01.405Z,394.42
2022-12-11T03:29:32.451Z,404.83
2022-12-11T03:32:01.846Z,396.77
2022-12-11T03:34:31.329Z,394.48
2022-12-11T03:37:00.604Z,391.67
2022-12-11T03:39:30.842Z,393.98
2022-12-11T03:41:58.556Z,390.38
2022-12-11T03:44:26.249Z,398.30
2022-12-11T03:46:53.887Z,391.60
2022-12-11T03:49:24.243Z,390.90
2022-12-11T03:51:52.389Z,390.02
2022-12-11T03:54:21.409Z,383.48
2022-12-11T03:56:49.133Z,381.00
2022-12-11T03:59:16.818Z,377.45
2022-12-11T04:01:44.559Z,383.42
2022-12-11T04:04:12.429Z,378.42
2022-12-11T04:06:40.131Z,374.52
2022-12-11T04:09:07.821Z,369.40
2022-12-11T04:11:36.869Z,365.50
2022-12-11T04:14:22.862Z,366.48
2022-12-11T04:16:50.516Z,359.05
2022-12-11T04:19:36.761Z,359.70
2022-12-11T04:22:22.200Z,354.40
2022-12-11T04:24:50.093Z,352.25
2022-12-11T04:27:39.257Z,350.80
2022-12-11T04:30:08.326Z,345.42
2022-12-11T04:32:35.974Z,337.30
2022-12-11T04:35:03.799Z,332.23
2022-12-11T04:37:31.487Z,332.20
2022-12-11T04:39:59.183Z,330.33
2022-12-11T04:42:28.182Z,329.48
2022-12-11T04:44:55.867Z,324.50
2022-12-11T04:47:23.664Z,320.42
2022-12-11T04:49:51.319Z,311.35
2022-12-11T04:52:19.197Z,307.67
2022-12-11T04:54:46.980Z,311.27
2022-12-11T04:57:14.643Z,307.08
2022-12-11T04:59:43.672Z,302.27
2022-12-11T05:02:11.327Z,302.02
2022-12-11T05:04:39.014Z,297.02
2022-12-11T05:07:06.649Z,297.38
2022-12-11T05:09:34.344Z,285.40
2022-12-11T05:12:02.033Z,288.85
2022-12-11T05:14:31.880Z,281.10
2022-12-11T05:17:00.868Z,274.60
2022-12-11T05:19:28.651Z,274.10
2022-12-11T05:21:59.049Z,272.85
2022-12-11T05:24:26.722Z,271.80
2022-12-11T05:26:54.377Z,262.15
2022-12-11T05:29:22.066Z,255.18
2022-12-11T05:31:49.724Z,258.58
2022-12-11T05:34:18.918Z,259.98
2022-12-11T05:36:47.182Z,241.75
2022-12-11T05:39:14.836Z,242.88
2022-12-11T05:41:42.511Z,241.02
2022-12-11T05:44:11.448Z,238.02
2022-12-11T05:46:39.257Z,229.00
2022-12-11T05:49:06.982Z,222.45
2022-12-11T05:51:35.987Z,221.73
2022-12-11T05:54:03.717Z,217.40
2022-12-11T05:56:32.443Z,215.95
2022-12-11T05:59:00.445Z,209.70
2022-12-11T06:01:29.044Z,203.38
2022-12-11T06:03:57.117Z,196.25
2022-12-11T06:06:24.850Z,194.82
2022-12-11T06:08:54.030Z,193.05
2022-12-11T06:11:24.104Z,190.00
2022-12-11T06:13:52.285Z,186.05
2022-12-11T06:16:20.372Z,181.88
2022-12-11T06:18:48.150Z,174.32
2022-12-11T06:21:16.120Z,174.23
2022-12-11T06:23:43.936Z,169.38
2022-12-11T06:26:13.078Z,166.73
2022-12-11T06:28:40.730Z,162.30
2022-12-11T06:31:08.655Z,158.50
2022-12-11T06:33:36.415Z,156.43
2022-12-11T06:36:04.188Z,148.85
2022-12-11T06:38:31.871Z,144.43
2022-12-11T06:41:01.819Z,144.77
2022-12-11T06:43:30.822Z,140.75
2022-12-11T06:46:03.881Z,139.95
2022-12-11T06:48:32.145Z,129.73
2022-12-11T06:50:59.798Z,132.40
2022-12-11T06:53:27.719Z,130.98
2022-12-11T06:55:55.402Z,127.78
2022-12-11T06:58:23.050Z,125.25
2022-12-11T07:00:52.099Z,122.32
2022-12-11T07:03:19.977Z,119.40
2022-12-11T07:05:47.626Z,116.10
2022-12-11T07:08:15.769Z,113.95
2022-12-11T07:10:43.475Z,110.72
2022-12-11T07:13:11.178Z,109.82
2022-12-11T07:15:40.545Z,106.03
2022-12-11T07:18:10.686Z,104.60
2022-12-11T07:20:38.578Z,101.07
2022-12-11T07:23:06.434Z,98.72
2022-12-11T07:25:34.138Z,97.80
2022-12-11T07:28:01.815Z,94.03
2022-12-11T07:30:29.449Z,92.10
2022-12-11T07:32:57.187Z,89.20
2022-12-11T07:35:26.299Z,86.00
2022-12-11T07:37:53.981Z,85.15
2022-12-11T07:40:21.691Z,82.85
2022-12-11T07:42:49.343Z,80.43
2022-12-11T07:45:17.121Z,79.82
2022-12-11T07:47:44.843Z,76.93
2022-12-11T07:50:12.518Z,74.03
2022-12-11T07:52:41.587Z,73.18
2022-12-11T07:55:10.280Z,68.00
2022-12-11T07:57:38.054Z,69.03
2022-12-11T08:00:06.929Z,64.63
2022-12-11T08:02:40.198Z,63.75
2022-12-11T08:05:09.480Z,62.60
2022-12-11T08:07:37.368Z,60.38
2022-12-11T08:10:07.143Z,58.10
2022-12-11T08:12:34.846Z,58.45
2022-12-11T08:15:02.556Z,56.17
2022-12-11T08:17:33.917Z,53.45
2022-12-11T08:20:05.320Z,53.60
2022-12-11T08:22:33.046Z,51.47
2022-12-11T08:25:00.743Z,50.20
2022-12-11T08:27:30.586Z,47.47
2022-12-11T08:29:58.298Z,38.50
2022-12-11T08:32:25.982Z,38.65
2022-12-11T08:34:53.631Z,40.05
2022-12-11T08:37:21.308Z,39.22
2022-12-11T08:39:49.004Z,37.80
2022-12-11T08:42:16.712Z,38.30
2022-12-11T08:44:45.987Z,35.35
2022-12-11T08:47:15.257Z,35.33
2022-12-11T08:49:42.918Z,34.25
2022-12-11T08:52:10.615Z,33.28
2022-12-11T08:54:38.470Z,31.65
2022-12-11T08:57:06.147Z,31.98
2022-12-11T08:59:34.026Z,31.02
2022-12-11T09:02:03.041Z,29.50
2022-12-11T09:04:30.814Z,28.40
2022-12-11T09:06:58.561Z,25.10
2022-12-11T09:09:26.254Z,23.50
2022-12-11T09:11:54.022Z,23.58
2022-12-11T09:14:21.952Z,22.70
2022-12-11T09:16:49.621Z,22.27
2022-12-11T09:19:18.606Z,20.35
2022-12-11T09:21:46.277Z,19.38
2022-12-11T09:24:14.201Z,17.73
2022-12-11T09:26:42.070Z,12.55
2022-12-11T09:29:13.361Z,14.55
2022-12-11T09:31:41.081Z,13.70
2022-12-11T09:34:09.926Z,13.40
2022-12-11T09:36:39.188Z,13.13
2022-12-11T09:39:07.708Z,11.75
2022-12-11T09:41:40.303Z,11.32
2022-12-11T09:44:17.688Z,11.07
2022-12-11T09:46:45.456Z,10.55
2022-12-11T09:49:21.262Z,11.85
2022-12-11T09:51:51.608Z,11.20
2022-12-11T09:54:19.392Z,17.38
2022-12-11T09:56:48.863Z,13.13
2022-12-11T09:59:19.871Z,9.68
2022-12-11T10:01:50.561Z,10.73
2022-12-11T10:04:29.387Z,11.52
2022-12-11T10:07:03.188Z,10.45
2022-12-11T10:09:34.370Z,14.30
2022-12-11T10:12:08.059Z,6.80
2022-12-11T10:14:44.848Z,8.70
2022-12-11T10:17:14.163Z,14.10
2022-12-11T10:19:42.197Z,8.30
2022-12-11T10:22:13.772Z,13.68
2022-12-11T10:25:10.004Z,11.15
2022-12-11T10:27:31.972Z,8.10
2022-12-11T10:30:03.427Z,8.60
2022-12-11T10:32:33.456Z,12.40
2022-12-11T10:35:03.595Z,12.40
2022-12-11T10:37:32.728Z,7.55
2022-12-11T10:40:00.403Z,7.60
2022-12-11T10:42:28.082Z,16.40
2022-12-11T10:45:00.372Z,8.55
2022-12-11T10:47:28.039Z,12.07
2022-12-11T10:49:58.169Z,7.20
2022-12-11T10:52:27.003Z,8.82
2022-12-11T10:55:00.136Z,7.00
2022-12-11T10:57:29.483Z,8.30
2022-12-11T10:59:57.199Z,6.65
2022-12-11T11:02:26.304Z,6.93
2022-12-11T11:04:54.196Z,8.80
2022-12-11T11:07:23.636Z,10.90
2022-12-11T11:09:51.727Z,9.38
2022-12-11T11:12:23.389Z,11.15
2022-12-11T11:15:00.727Z,9.18
2022-12-11T11:17:33.823Z,11.18
2022-12-11T11:20:07.374Z,9.27
2022-12-11T11:22:38.168Z,7.65
2022-12-11T11:25:06.549Z,9.57
2022-12-11T11:27:36.938Z,10.52
2022-12-11T11:30:06.185Z,6.68
2022-12-11T11:32:34.913Z,11.98
2022-12-11T11:35:24.499Z,10.25
2022-12-11T11:38:01.491Z,13.85
2022-12-11T11:40:30.729Z,15.15
2022-12-11T11:43:06.212Z,10.10
2022-12-11T11:45:36.019Z,14.13
2022-12-11T11:48:11.434Z,13.13
2022-12-11T11:50:39.516Z,12.23
2022-12-11T11:53:10.207Z,8.80
2022-12-11T11:55:43.603Z,10.40
2022-12-11T11:58:15.624Z,11.48
2022-12-11T12:00:43.347Z,7.47
2022-12-11T12:03:11.871Z,8.15
2022-12-11T12:05:43.986Z,10.63
2022-12-11T12:08:14.086Z,9.82
2022-12-11T12:10:45.180Z,10.20
2022-12-11T12:13:47.587Z,11.27
2022-12-11T12:16:22.936Z,9.20
2022-12-11T12:18:57.583Z,12.38
2022-12-11T12:21:28.381Z,11.90
2022-12-11T12:24:09.063Z,9.05
2022-12-11T12:26:37.582Z,14.18
2022-12-11T12:29:14.039Z,17.88
2022-12-11T12:31:49.430Z,10.50
2022-12-11T12:34:21.320Z,16.92
2022-12-11T12:36:52.284Z,12.95
2022-12-11T12:39:22.955Z,10.18
2022-12-11T12:41:53.972Z,19.02
2022-12-11T12:44:23.857Z,9.40
2022-12-11T12:46:55.404Z,13.60
2022-12-11T12:49:34.416Z,15.00
2022-12-11T12:52:02.500Z,15.85
2022-12-11T12:54:30.284Z,12.82
2022-12-11T12:56:58.126Z,8.90
2022-12-11T12:59:28.638Z,9.02
2022-12-11T13:01:57.489Z,9.07
2022-12-11T13:04:54.334Z,7.82
2022-12-11T13:07:20.260Z,11.90
2022-12-11T13:09:57.737Z,6.93
2022-12-11T13:12:43.925Z,10.10
2022-12-11T13:15:30.907Z,7.28
2022-12-11T13:17:58.719Z,8.35
2022-12-11T13:20:27.341Z,8.23
2022-12-11T13:22:57.237Z,12.18
2022-12-11T13:25:28.186Z,15.38
2022-12-11T13:28:05.898Z,6.80
2022-12-11T13:30:35.465Z,11.15
2022-12-11T13:33:05.029Z,15.40
2022-12-11T13:35:33.326Z,12.50
2022-12-11T13:38:07.123Z,10.13
2022-12-11T13:40:40.032Z,11.18
2022-12-11T13:43:11.144Z,8.85
2022-12-11T13:45:45.575Z,12.88
2022-12-11T13:48:18.886Z,8.85
2022-12-11T13:50:47.082Z,9.90
2022-12-11T13:53:15.441Z,7.75
2022-12-11T13:55:43.501Z,10.98
2022-12-11T13:58:20.523Z,14.40
2022-12-11T14:01:00.176Z,16.52
2022-12-11T14:03:27.974Z,11.95
2022-12-11T14:05:58.635Z,13.07
2022-12-11T14:08:30.567Z,13.18
2022-12-11T14:10:58.313Z,16.52
2022-12-11T14:13:27.175Z,15.05
2022-12-11T14:15:58.876Z,15.43
2022-12-11T14:18:28.597Z,8.73
2022-12-11T14:20:57.236Z,13.43
2022-12-11T14:23:26.604Z,11.15
2022-12-11T14:25:55.110Z,13.50
2022-12-11T14:28:23.175Z,13.60
2022-12-11T14:30:51.731Z,12.77
2022-12-11T14:33:23.019Z,16.70
2022-12-11T14:35:50.812Z,11.77
2022-12-11T14:38:20.153Z,14.68
2022-12-11T14:40:50.224Z,12.02
2022-12-11T14:43:21.586Z,9.35
2022-12-11T14:45:49.800Z,13.75
2022-12-11T14:48:22.179Z,11.15
2022-12-11T14:50:50.835Z,13.43
2022-12-11T14:53:21.217Z,13.98
2022-12-11T14:55:49.748Z,11.05
2022-12-11T14:58:19.905Z,17.98
2022-12-11T15:00:57.335Z,19.33
2022-12-11T15:03:27.521Z,17.88
2022-12-11T15:05:56.743Z,15.13
2022-12-11T15:08:27.689Z,12.32
2022-12-11T15:11:05.975Z,15.15
2022-12-11T15:13:33.918Z,18.58
2022-12-11T15:16:01.745Z,10.50
2022-12-11T15:18:32.144Z,9.88
2022-12-11T15:21:00.692Z,16.02
2022-12-11T15:23:28.630Z,13.73
2022-12-11T15:25:57.926Z,12.68
2022-12-11T15:28:30.112Z,14.63
2022-12-11T15:30:58.783Z,15.55
2022-12-11T15:33:31.056Z,7.93
2022-12-11T15:36:04.376Z,11.63
2022-12-11T15:38:34.408Z,13.02
2022-12-11T15:41:02.349Z,11.80
2022-12-11T15:43:30.571Z,13.18
2022-12-11T15:45:58.280Z,13.80
2022-12-11T15:48:25.999Z,17.92
2022-12-11T15:50:53.690Z,16.67
2022-12-11T15:53:22.676Z,15.73
2022-12-11T15:55:50.820Z,21.58
2022-12-11T15:58:19.816Z,23.85
2022-12-11T16:00:47.576Z,18.83
2022-12-11T16:03:16.680Z,23.42
2022-12-11T16:05:44.544Z,22.63
2022-12-11T16:08:15.031Z,17.23
2022-12-11T16:10:44.211Z,14.43
2022-12-11T16:13:12.130Z,25.75
2022-12-11T16:15:40.000Z,17.92
2022-12-11T16:18:08.879Z,21.23
2022-12-11T16:20:36.899Z,18.67
2022-12-11T16:23:04.787Z,14.05
2022-12-11T16:25:32.726Z,14.98
2022-12-11T16:28:02.134Z,12.63
2022-12-11T16:30:29.989Z,13.32
2022-12-11T16:32:57.975Z,21.45
2022-12-11T16:35:25.853Z,12.40
2022-12-11T16:37:54.049Z,17.60
2022-12-11T16:40:22.029Z,17.48
2022-12-11T16:42:50.192Z,17.92
2022-12-11T16:45:19.998Z,19.52
2022-12-11T16:47:47.786Z,14.40
2022-12-11T16:50:16.039Z,16.50
2022-12-11T16:52:44.015Z,11.05
2022-12-11T16:55:12.474Z,11.75
2022-12-11T16:57:40.451Z,10.73
2022-12-11T17:00:11.972Z,11.73
2022-12-11T17:02:41.156Z,10.50
2022-12-11T17:05:09.173Z,10.50
2022-12-11T17:07:36.974Z,9.88
2022-12-11T17:10:04.922Z,12.48
2022-12-11T17:12:32.641Z,10.80
2022-12-11T17:15:00.336Z,11.45
2022-12-11T17:17:28.021Z,10.55
2022-12-11T17:19:58.261Z,11.05
2022-12-11T17:22:26.225Z,11.68
2022-12-11T17:24:54.224Z,10.35
2022-12-11T17:27:22.850Z,10.27
2022-12-11T17:29:50.781Z,11.18
2022-12-11T17:32:18.802Z,8.75
2022-12-11T17:34:48.431Z,9.50
2022-12-11T17:37:17.464Z,10.77
2022-12-11T17:39:46.455Z,13.05
2022-12-11T17:42:14.255Z,10.65
2022-12-11T17:44:41.917Z,12.05
2022-12-11T17:47:11.871Z,6.70
2022-12-11T17:49:39.647Z,10.95
2022-12-11T17:52:07.330Z,10.73
2022-12-11T17:54:36.407Z,7.45
2022-12-11T17:57:04.078Z,8.23
2022-12-11T17:59:31.822Z,8.27
2022-12-11T18:01:59.541Z,7.00
2022-12-11T18:04:27.245Z,9.57
2022-12-11T18:06:54.951Z,7.70
2022-12-11T18:09:22.652Z,7.32
2022-12-11T18:11:51.826Z,7.82
2022-12-11T18:14:19.519Z,10.55
2022-12-11T18:16:47.236Z,7.72
2022-12-11T18:19:15.592Z,8.65
2022-12-11T18:21:45.537Z,7.25
2022-12-11T18:24:13.270Z,7.80
2022-12-11T18:26:42.685Z,6.55
2022-12-11T18:29:11.722Z,8.75
2022-12-11T18:31:42.703Z,8.55
2022-12-11T18:34:11.020Z,7.18
2022-12-11T18:36:40.570Z,8.48
2022-12-11T18:39:08.281Z,8.65
2022-12-11T18:41:35.957Z,9.73
2022-12-11T18:44:09.342Z,7.22
2022-12-11T18:46:39.476Z,6.50
2022-12-11T18:49:07.320Z,7.07
2022-12-11T18:51:35.029Z,6.18
2022-12-11T18:54:02.682Z,6.18
2022-12-11T18:56:30.392Z,6.93
2022-12-11T18:58:58.099Z,7.63
2022-12-11T19:01:26.795Z,5.85
2022-12-11T19:04:02.365Z,6.22
2022-12-11T19:06:33.068Z,7.00
2022-12-11T19:09:00.786Z,8.98
2022-12-11T19:11:29.841Z,6.85
2022-12-11T19:13:57.701Z,5.50
2022-12-11T19:16:26.369Z,5.30
2022-12-11T19:18:55.401Z,8.88
2022-12-11T19:21:23.103Z,4.43
2022-12-11T19:23:50.755Z,4.38
2022-12-11T19:26:19.363Z,6.70
2022-12-11T19:28:47.394Z,6.57
2022-12-11T19:31:16.245Z,6.97
2022-12-11T19:33:44.257Z,5.20
2022-12-11T19:36:13.968Z,6.30
2022-12-11T19:38:42.082Z,5.65
2022-12-11T19:41:11.462Z,4.93
2022-12-11T19:43:39.174Z,5.95
2022-12-11T19:46:07.900Z,6.15
2022-12-11T19:48:37.318Z,4.90
2022-12-11T19:51:05.811Z,5.72
2022-12-11T19:53:34.894Z,6.18
2022-12-11T19:56:02.744Z,4.78
2022-12-11T19:58:30.446Z,4.93
2022-12-11T20:00:58.580Z,5.00
2022-12-11T20:03:26.414Z,4.32
2022-12-11T20:05:54.204Z,4.68
2022-12-11T20:08:43.688Z,3.65
2022-12-11T20:11:17.288Z,4.50
2022-12-11T20:13:46.539Z,4.50
2022-12-11T20:16:14.483Z,4.32
2022-12-11T20:18:42.721Z,6.75
2022-12-11T20:21:12.451Z,4.55
2022-12-11T20:23:40.107Z,4.60
2022-12-11T20:26:08.879Z,5.13
2022-12-11T20:28:38.338Z,5.15
2022-12-11T20:31:06.555Z,4.68
2022-12-11T20:33:34.380Z,4.05
2022-12-11T20:36:02.220Z,4.95
2022-12-11T20:38:34.304Z,4.60
2022-12-11T20:41:02.393Z,4.93
2022-12-11T20:43:30.107Z,4.78
2022-12-11T20:46:00.014Z,5.47
2022-12-11T20:48:27.770Z,5.88
2022-12-11T20:50:55.428Z,4.10
2022-12-11T20:53:23.206Z,5.07
2022-12-11T20:55:52.214Z,3.35
2022-12-11T20:58:20.491Z,4.30
2022-12-11T21:00:48.385Z,4.47
2022-12-11T21:03:17.462Z,5.00
2022-12-11T21:05:45.723Z,4.07
2022-12-11T21:08:13.485Z,3.30
2022-12-11T21:10:42.531Z,3.10
2022-12-11T21:13:10.193Z,4.68
2022-12-11T21:15:38.160Z,4.18
2022-12-11T21:18:06.089Z,3.42
2022-12-11T21:20:35.163Z,4.95
2022-12-11T21:23:03.031Z,4.35
2022-12-11T21:25:30.973Z,3.47
2022-12-11T21:27:58.755Z,3.83
2022-12-11T21:30:26.443Z,4.78
2022-12-11T21:32:54.199Z,3.50
2022-12-11T21:35:22.431Z,4.50
2022-12-11T21:37:51.473Z,4.78
2022-12-11T21:40:19.299Z,3.42
2022-12-11T21:42:46.958Z,3.00
2022-12-11T21:48:02.286Z,3.83
2022-12-11T21:50:29.966Z,4.10
2022-12-11T21:52:58.951Z,4.38
2022-12-11T21:55:26.671Z,3.70
2022-12-11T21:57:54.941Z,4.25
2022-12-11T22:00:22.989Z,3.63
2022-12-11T22:02:50.864Z,5.05
2022-12-11T22:05:18.540Z,4.07
2022-12-11T22:07:46.268Z,4.25
2022-12-11T22:10:15.332Z,3.53
2022-12-11T22:12:43.013Z,3.20
2022-12-11T22:15:11.348Z,3.67
2022-12-11T22:17:39.283Z,3.67
2022-12-11T22:20:07.757Z,3.35
2022-12-11T22:22:35.462Z,3.42
2022-12-11T22:25:03.526Z,4.13
2022-12-11T22:27:32.517Z,4.55
2022-12-11T22:30:00.184Z,3.35
2022-12-11T22:32:28.086Z,4.45
2022-12-11T22:34:57.622Z,3.55
2022-12-11T22:37:25.324Z,4.65
2022-12-11T22:39:52.987Z,3.33
2022-12-11T22:42:20.660Z,3.38
2022-12-11T22:44:49.663Z,3.92
2022-12-11T22:47:17.372Z,2.95
2022-12-11T22:49:45.053Z,4.05
2022-12-11T22:52:12.720Z,3.47
2022-12-11T22:54:40.493Z,4.20
2022-12-11T22:57:08.289Z,3.45
2022-12-11T22:59:36.392Z,4.80
2022-12-11T23:02:05.464Z,4.10
2022-12-11T23:04:33.268Z,4.07
2022-12-11T23:07:00.951Z,3.55
2022-12-11T23:09:28.691Z,3.30
2022-12-11T23:11:58.314Z,4.43
2022-12-11T23:14:26.485Z,4.03
2022-12-11T23:16:54.312Z,3.47
2022-12-11T23:19:25.595Z,3.65
2022-12-11T23:21:53.638Z,3.15
2022-12-11T23:24:21.347Z,3.28
2022-12-11T23:26:49.042Z,4.40
2022-12-11T23:29:16.715Z,3.40
2022-12-11T23:31:44.420Z,4.00
2022-12-11T23:34:12.111Z,2.85
2022-12-11T23:36:41.118Z,3.10
2022-12-11T23:39:08.790Z,3.17
2022-12-11T23:41:36.846Z,3.13
2022-12-11T23:44:04.625Z,3.78
2022-12-11T23:46:32.800Z,2.75
2022-12-11T23:49:00.563Z,3.75
2022-12-11T23:51:28.248Z,4.00
2022-12-11T23:53:57.267Z,3.00
2022-12-11T23:56:25.664Z,3.63
2022-12-11T23:58:53.493Z,3.03
